Time;durP1;ratioP1;P1;durP2;ratioP2;P2;SDS_P1;SDS_P2;PMS_P1;PMS_P2;Temp;Humidity;BMP_temperature;BMP_pressure;BME280_temperature;BME280_humidity;BME280_pressure;Samples;Min_cycle;Max_cycle;Signal;HPM_P1;HPM_P2
2023/10/24 00:02:04;;;;;;;23.45;13.50;;;15.70;99.90;;;;;;5146942;28;20062;-75
2023/10/24 00:04:34;;;;;;;18.10;12.10;;;15.80;99.90;;;;;;5146755;28;20026;-76
2023/10/24 00:07:05;;;;;;;27.45;12.90;;;15.80;99.90;;;;;;5146385;28;20038;-76
2023/10/24 00:09:36;;;;;;;27.38;13.50;;;15.60;99.90;;;;;;5146442;28;20118;-73
2023/10/24 00:12:07;;;;;;;24.00;14.25;;;15.70;99.90;;;;;;5146515;28;20034;-74
2023/10/24 00:14:38;;;;;;;19.35;13.23;;;15.60;99.90;;;;;;5146105;28;20027;-76
2023/10/24 00:17:08;;;;;;;21.92;12.32;;;15.50;99.90;;;;;;5146560;28;20082;-76
2023/10/24 00:19:39;;;;;;;19.23;13.27;;;15.60;99.90;;;;;;5145945;28;20058;-75
2023/10/24 00:22:10;;;;;;;23.05;12.45;;;15.60;99.90;;;;;;5145617;28;20450;-74
2023/10/24 00:24:41;;;;;;;15.23;12.73;;;15.60;99.90;;;;;;5146415;28;20029;-74
2023/10/24 00:27:12;;;;;;;24.83;12.90;;;15.70;99.90;;;;;;5146208;28;20035;-76
2023/10/24 00:29:43;;;;;;;19.48;13.50;;;15.70;99.90;;;;;;5145225;28;20097;-75
2023/10/24 00:32:14;;;;;;;23.25;12.68;;;15.50;99.90;;;;;;5145780;28;20038;-74
2023/10/24 00:34:44;;;;;;;22.77;12.90;;;15.60;99.90;;;;;;5144773;28;20560;-74
2023/10/24 00:37:15;;;;;;;27.40;14.93;;;15.50;99.90;;;;;;5144885;28;20715;-74
2023/10/24 00:39:46;;;;;;;22.23;13.30;;;15.60;99.90;;;;;;5143463;28;20387;-72
2023/10/24 00:42:17;;;;;;;20.23;13.68;;;15.50;99.90;;;;;;5144812;28;20025;-76
2023/10/24 00:44:47;;;;;;;19.35;13.43;;;15.50;99.90;;;;;;5143077;28;20035;-74
2023/10/24 00:47:18;;;;;;;24.75;12.93;;;15.50;99.90;;;;;;5144800;28;20114;-75
2023/10/24 00:49:51;;;;;;;20.70;13.23;;;15.30;99.90;;;;;;5145619;28;20031;-72
2023/10/24 00:52:22;;;;;;;22.92;13.40;;;15.40;99.90;;;;;;5145808;28;20517;-75
2023/10/24 00:54:53;;;;;;;25.65;13.75;;;15.30;99.90;;;;;;5145738;28;20027;-72
2023/10/24 00:57:25;;;;;;;23.83;12.88;;;15.30;99.90;;;;;;5145968;28;20093;-73
2023/10/24 00:59:56;;;;;;;22.73;14.52;;;15.40;99.90;;;;;;5146055;28;20034;-74
2023/10/24 01:02:27;;;;;;;19.95;13.40;;;15.30;99.90;;;;;;5145682;28;20026;-73
2023/10/24 01:05:00;;;;;;;23.67;13.43;;;15.30;99.90;;;;;;5145993;28;20530;-75
2023/10/24 01:07:32;;;;;;;25.88;13.25;;;15.40;99.90;;;;;;5145770;28;20022;-75
2023/10/24 01:10:03;;;;;;;20.77;12.95;;;15.30;99.90;;;;;;5145527;28;20023;-75
2023/10/24 01:12:34;;;;;;;28.25;14.20;;;15.30;99.90;;;;;;5145485;28;20034;-75
2023/10/24 01:15:06;;;;;;;18.35;14.13;;;15.30;99.90;;;;;;5144718;28;20573;-75
2023/10/24 01:17:48;;;;;;;26.80;13.85;;;15.10;99.90;;;;;;5145184;28;20062;-73
2023/10/24 01:20:19;;;;;;;20.83;13.20;;;15.40;99.90;;;;;;5145206;28;20037;-75
2023/10/24 01:22:50;;;;;;;22.85;13.52;;;15.30;99.90;;;;;;5144817;28;20034;-75
2023/10/24 01:25:28;;;;;;;22.92;12.57;;;15.40;99.90;;;;;;5144755;28;20031;-76
2023/10/24 01:28:03;;;;;;;17.85;13.43;;;15.30;99.90;;;;;;5145099;28;20566;-75
2023/10/24 01:30:41;;;;;;;24.73;13.40;;;15.10;99.90;;;;;;5144731;28;20105;-76
2023/10/24 01:33:12;;;;;;;21.08;13.68;;;15.20;99.90;;;;;;5144534;28;20030;-75
2023/10/24 01:35:42;;;;;;;25.98;14.30;;;15.10;99.90;;;;;;5144875;28;20027;-74
2023/10/24 01:38:13;;;;;;;21.30;14.30;;;15.10;99.90;;;;;;5144781;28;20031;-75
2023/10/24 01:40:44;;;;;;;17.50;13.13;;;15.20;99.90;;;;;;5144835;28;20059;-75
2023/10/24 01:43:15;;;;;;;17.45;12.32;;;15.10;99.90;;;;;;5144554;28;20387;-72
2023/10/24 01:45:46;;;;;;;26.40;13.85;;;15.00;99.90;;;;;;5144582;28;20223;-75
2023/10/24 01:48:19;;;;;;;25.58;13.23;;;14.90;99.90;;;;;;5144601;28;20031;-75
2023/10/24 01:50:49;;;;;;;23.75;13.32;;;15.10;99.90;;;;;;5144452;28;20027;-74
2023/10/24 01:53:20;;;;;;;20.08;13.18;;;15.10;99.90;;;;;;5144643;28;20414;-72
2023/10/24 01:55:51;;;;;;;21.38;13.55;;;14.90;99.90;;;;;;5144439;28;20031;-75
2023/10/24 01:58:22;;;;;;;16.23;11.98;;;14.90;99.90;;;;;;5144579;28;20558;-75
2023/10/24 02:00:53;;;;;;;22.00;13.20;;;15.00;99.90;;;;;;5144675;28;20067;-75
2023/10/24 02:03:24;;;;;;;19.83;12.70;;;15.00;99.90;;;;;;5144681;28;20093;-76
2023/10/24 02:05:54;;;;;;;20.48;13.48;;;14.90;99.90;;;;;;5144479;28;20031;-75
2023/10/24 02:08:25;;;;;;;21.60;13.30;;;14.80;99.90;;;;;;5144452;28;20034;-74
2023/10/24 02:10:56;;;;;;;24.60;13.05;;;14.90;99.90;;;;;;5144526;28;20070;-74
2023/10/24 02:13:27;;;;;;;17.38;13.30;;;14.90;99.90;;;;;;5144825;28;20031;-75
2023/10/24 02:15:57;;;;;;;22.35;12.48;;;14.80;99.90;;;;;;5144674;28;20130;-75
2023/10/24 02:18:28;;;;;;;22.05;13.02;;;14.80;99.90;;;;;;5143348;28;20031;-75
2023/10/24 02:20:59;;;;;;;25.65;13.70;;;14.90;99.90;;;;;;5143085;28;20027;-75
2023/10/24 02:23:30;;;;;;;19.58;12.88;;;14.70;99.90;;;;;;5144278;28;20027;-74
2023/10/24 02:26:02;;;;;;;19.85;13.35;;;14.90;99.90;;;;;;5143084;28;20093;-74
2023/10/24 02:28:32;;;;;;;23.80;13.30;;;14.80;99.90;;;;;;5144319;28;20039;-76
2023/10/24 02:31:03;;;;;;;18.60;12.48;;;14.80;99.90;;;;;;5144310;28;20026;-75
2023/10/24 02:33:34;;;;;;;19.05;12.23;;;14.90;99.90;;;;;;5144600;28;20065;-75
2023/10/24 02:36:14;;;;;;;23.27;12.38;;;14.70;99.90;;;;;;5144109;28;20033;-73
2023/10/24 02:38:44;;;;;;;21.00;13.27;;;14.90;99.90;;;;;;5144151;28;20062;-76
2023/10/24 02:41:15;;;;;;;14.73;11.80;;;14.80;99.90;;;;;;5144292;28;20019;-74
2023/10/24 02:43:46;;;;;;;21.50;12.60;;;14.70;99.90;;;;;;5145272;28;20386;-72
2023/10/24 02:46:17;;;;;;;22.90;13.95;;;14.80;99.90;;;;;;5148130;28;20035;-75
2023/10/24 02:48:48;;;;;;;17.92;13.10;;;14.70;99.90;;;;;;5148074;28;20055;-75
2023/10/24 02:51:20;;;;;;;20.33;13.13;;;14.60;99.90;;;;;;5147816;28;20127;-75
2023/10/24 02:53:50;;;;;;;27.30;13.52;;;14.80;99.90;;;;;;5148132;28;20030;-75
2023/10/24 02:56:21;;;;;;;16.85;13.27;;;14.70;99.90;;;;;;5148120;28;20073;-75
2023/10/24 02:58:52;;;;;;;20.02;12.25;;;14.60;99.90;;;;;;5148002;28;20033;-75
2023/10/24 03:01:23;;;;;;;18.17;12.18;;;14.60;99.90;;;;;;5147860;28;20110;-73
2023/10/24 03:03:54;;;;;;;23.88;13.02;;;14.70;99.90;;;;;;5147685;28;20118;-73
2023/10/24 03:06:25;;;;;;;19.77;13.55;;;14.50;99.90;;;;;;5147546;28;20022;-73
2023/10/24 03:08:55;;;;;;;24.10;13.35;;;14.50;99.90;;;;;;5147770;28;20355;-74
2023/10/24 03:11:26;;;;;;;22.73;13.13;;;14.50;99.90;;;;;;5147887;28;20113;-72
2023/10/24 03:13:57;;;;;;;17.70;11.25;;;14.60;99.90;;;;;;5147505;28;20390;-75
2023/10/24 03:16:28;;;;;;;17.17;11.52;;;14.90;99.90;;;;;;5147238;28;20395;-75
2023/10/24 03:18:59;;;;;;;15.25;12.10;;;14.60;99.90;;;;;;5147385;28;20038;-75
2023/10/24 03:21:30;;;;;;;24.48;12.75;;;14.60;99.90;;;;;;5147492;28;20074;-75
2023/10/24 03:24:02;;;;;;;15.20;12.38;;;14.20;99.90;;;;;;5147968;28;20026;-75
2023/10/24 03:26:33;;;;;;;15.65;12.93;;;14.60;99.90;;;;;;5146447;28;20027;-75
2023/10/24 03:29:03;;;;;;;19.40;12.20;;;14.40;99.90;;;;;;5146320;28;20033;-75
2023/10/24 03:31:35;;;;;;;19.15;11.77;;;14.50;99.90;;;;;;5147319;28;20125;-75
2023/10/24 03:34:06;;;;;;;25.23;13.85;;;14.40;99.90;;;;;;5147365;28;20054;-75
2023/10/24 03:36:37;;;;;;;22.88;13.13;;;14.40;99.90;;;;;;5147093;28;20501;-74
2023/10/24 03:39:08;;;;;;;16.35;12.00;;;14.50;99.90;;;;;;5147327;28;20029;-71
2023/10/24 03:41:39;;;;;;;20.10;11.07;;;14.40;99.90;;;;;;5145436;28;20126;-75
2023/10/24 03:44:10;;;;;;;16.20;12.07;;;14.40;99.90;;;;;;5145767;28;20054;-73
2023/10/24 03:46:41;;;;;;;19.35;12.18;;;14.40;99.90;;;;;;5145385;28;20038;-75
2023/10/24 03:49:12;;;;;;;17.48;13.18;;;14.40;99.90;;;;;;5145526;28;20062;-72
2023/10/24 03:51:43;;;;;;;13.82;11.27;;;14.40;99.90;;;;;;5146182;28;20023;-75
2023/10/24 03:54:14;;;;;;;15.73;12.60;;;14.40;99.90;;;;;;5146282;28;20019;-75
2023/10/24 03:56:45;;;;;;;21.23;11.98;;;14.50;99.90;;;;;;5146025;28;20023;-74
2023/10/24 03:59:16;;;;;;;23.20;12.20;;;14.40;99.90;;;;;;5145524;28;20027;-75
2023/10/24 04:01:47;;;;;;;19.38;12.65;;;14.30;99.90;;;;;;5146021;28;20030;-76
2023/10/24 04:04:18;;;;;;;17.25;12.02;;;14.30;99.90;;;;;;5146578;28;20026;-75
2023/10/24 04:06:48;;;;;;;18.67;13.63;;;14.40;99.90;;;;;;5146304;28;20118;-75
2023/10/24 04:09:19;;;;;;;18.48;13.10;;;14.40;99.90;;;;;;5146091;28;20027;-75
2023/10/24 04:11:50;;;;;;;20.42;13.65;;;14.40;99.90;;;;;;5145859;28;20486;-73
2023/10/24 04:14:21;;;;;;;17.98;13.15;;;14.40;99.90;;;;;;5145661;28;20466;-75
2023/10/24 04:16:51;;;;;;;25.33;12.40;;;14.30;99.90;;;;;;5145580;28;20398;-75
2023/10/24 04:19:23;;;;;;;17.33;12.63;;;14.30;99.90;;;;;;5145717;28;20046;-73
2023/10/24 04:21:54;;;;;;;15.10;13.15;;;14.30;99.90;;;;;;5145859;28;20023;-75
2023/10/24 04:24:24;;;;;;;18.33;12.80;;;14.20;99.90;;;;;;5146084;28;20041;-71
2023/10/24 04:26:56;;;;;;;17.75;13.02;;;14.30;99.90;;;;;;5146243;28;20019;-73
2023/10/24 04:29:28;;;;;;;19.48;13.40;;;14.30;99.90;;;;;;5146036;28;20034;-75
2023/10/24 04:31:59;;;;;;;17.17;12.88;;;14.20;99.90;;;;;;5146154;28;20030;-75
2023/10/24 04:34:30;;;;;;;22.88;12.57;;;14.10;99.90;;;;;;5146340;28;20358;-73
2023/10/24 04:37:01;;;;;;;18.88;12.32;;;14.20;99.90;;;;;;5146073;28;20026;-75
2023/10/24 04:39:32;;;;;;;23.50;12.68;;;14.20;99.90;;;;;;5146334;28;20034;-75
2023/10/24 04:42:03;;;;;;;18.25;11.55;;;14.20;99.90;;;;;;5145902;28;20439;-71
2023/10/24 04:44:34;;;;;;;18.08;12.30;;;14.50;99.90;;;;;;5145734;28;20050;-75
2023/10/24 04:47:05;;;;;;;18.77;13.32;;;14.20;99.90;;;;;;5145806;28;20033;-74
2023/10/24 04:49:36;;;;;;;24.63;12.75;;;14.20;99.90;;;;;;5145700;28;20093;-72
2023/10/24 04:52:07;;;;;;;13.30;11.57;;;14.40;99.90;;;;;;5145570;28;20031;-75
2023/10/24 04:54:38;;;;;;;15.70;12.45;;;14.20;99.90;;;;;;5145273;28;20493;-75
2023/10/24 04:57:09;;;;;;;17.40;13.18;;;14.30;99.90;;;;;;5145443;28;20482;-75
2023/10/24 04:59:40;;;;;;;20.45;12.75;;;14.30;99.90;;;;;;5145489;28;20478;-75
2023/10/24 05:02:10;;;;;;;15.45;11.57;;;14.20;99.90;;;;;;5145441;28;20034;-72
2023/10/24 05:04:41;;;;;;;19.98;12.90;;;13.50;99.90;;;;;;5145570;28;20027;-75
2023/10/24 05:07:13;;;;;;;14.18;12.73;;;14.30;99.90;;;;;;5144773;28;20037;-75
2023/10/24 05:09:44;;;;;;;20.73;12.80;;;14.40;99.90;;;;;;5145193;28;20034;-74
2023/10/24 05:12:15;;;;;;;15.57;12.27;;;14.30;99.90;;;;;;5145305;28;20040;-74
2023/10/24 05:14:45;;;;;;;17.33;12.45;;;14.40;99.90;;;;;;5143445;28;20038;-71
2023/10/24 05:17:16;;;;;;;14.65;11.80;;;13.70;99.90;;;;;;5145167;28;20037;-74
2023/10/24 05:19:47;;;;;;;21.10;13.70;;;13.90;99.90;;;;;;5141899;28;20066;-75
2023/10/24 05:22:18;;;;;;;21.08;13.02;;;14.50;99.90;;;;;;5144813;28;20031;-75
2023/10/24 05:24:48;;;;;;;16.15;13.13;;;14.80;99.90;;;;;;5144866;28;20463;-75
2023/10/24 05:27:19;;;;;;;17.33;12.90;;;14.40;99.90;;;;;;5144942;28;20548;-75
2023/10/24 05:29:50;;;;;;;19.30;13.48;;;15.90;99.90;;;;;;5144961;28;20462;-72
2023/10/24 05:32:21;;;;;;;22.45;12.85;;;14.30;99.90;;;;;;5140338;28;20038;-74
2023/10/24 05:34:52;;;;;;;18.25;12.02;;;14.90;99.90;;;;;;5144615;28;20046;-73
2023/10/24 05:37:22;;;;;;;19.63;11.70;;;14.80;99.90;;;;;;5143033;28;20698;-75
2023/10/24 05:39:53;;;;;;;21.58;11.10;;;14.90;99.90;;;;;;5144053;28;20058;-76
2023/10/24 05:42:24;;;;;;;13.85;11.07;;;15.20;99.90;;;;;;5144455;28;20062;-74
2023/10/24 05:44:55;;;;;;;21.42;11.90;;;15.40;99.90;;;;;;5145061;28;20370;-71
2023/10/24 05:47:25;;;;;;;17.23;11.63;;;15.50;99.90;;;;;;5144936;28;20030;-75
2023/10/24 05:49:56;;;;;;;15.02;11.40;;;15.50;99.90;;;;;;5144685;28;20139;-75
2023/10/24 05:52:27;;;;;;;25.48;12.73;;;15.60;99.90;;;;;;5144592;28;20031;-74
2023/10/24 05:54:58;;;;;;;18.42;13.13;;;15.70;99.90;;;;;;5144755;28;20022;-75
2023/10/24 05:57:29;;;;;;;20.17;13.15;;;15.60;99.90;;;;;;5132361;28;20024;-75
2023/10/24 06:00:01;;;;;;;18.77;13.55;;;15.70;99.90;;;;;;5124593;28;20368;-71
2023/10/24 06:02:31;;;;;;;17.90;13.40;;;15.60;99.90;;;;;;5124676;28;20031;-75
2023/10/24 06:05:02;;;;;;;21.52;14.02;;;15.70;99.90;;;;;;5124631;28;20023;-75
2023/10/24 06:07:33;;;;;;;21.00;13.30;;;15.80;99.90;;;;;;5127511;28;20149;-72
2023/10/24 06:10:04;;;;;;;16.65;12.50;;;15.80;99.90;;;;;;5143966;28;20015;-75
2023/10/24 06:12:35;;;;;;;18.63;12.98;;;16.00;99.90;;;;;;5143924;28;20047;-75
2023/10/24 06:15:06;;;;;;;17.55;13.38;;;16.20;99.90;;;;;;5143660;28;20116;-73
2023/10/24 06:17:38;;;;;;;17.98;13.57;;;16.30;99.90;;;;;;5144313;28;20038;-72
2023/10/24 06:20:09;;;;;;;14.02;12.50;;;16.30;99.90;;;;;;5147460;28;20069;-76
2023/10/24 06:22:40;;;;;;;22.38;13.13;;;16.50;99.90;;;;;;5148045;28;20034;-74
2023/10/24 06:25:11;;;;;;;18.15;12.27;;;16.60;99.90;;;;;;5148447;28;20050;-73
2023/10/24 06:27:41;;;;;;;18.67;12.80;;;16.80;99.90;;;;;;5148327;28;20488;-75
2023/10/24 06:30:12;;;;;;;18.70;13.18;;;16.80;99.90;;;;;;5148245;28;20054;-75
2023/10/24 06:32:43;;;;;;;18.05;12.43;;;17.00;99.90;;;;;;5148280;28;20355;-75
2023/10/24 06:35:15;;;;;;;20.50;12.45;;;17.00;99.90;;;;;;5148220;28;20037;-75
2023/10/24 06:37:46;;;;;;;20.00;12.63;;;17.00;99.90;;;;;;5148259;28;20379;-75
2023/10/24 06:40:16;;;;;;;21.17;12.85;;;17.20;99.90;;;;;;5147967;28;20033;-75
2023/10/24 06:42:47;;;;;;;15.93;12.13;;;17.20;99.90;;;;;;5148028;28;20557;-76
2023/10/24 06:45:18;;;;;;;17.75;12.52;;;17.20;99.90;;;;;;5147693;28;20038;-76
2023/10/24 06:47:49;;;;;;;16.70;12.45;;;17.40;99.90;;;;;;5147872;28;20114;-75
2023/10/24 06:50:20;;;;;;;16.50;11.90;;;17.50;99.90;;;;;;5148085;28;20037;-73
2023/10/24 06:52:50;;;;;;;17.92;12.77;;;17.70;99.90;;;;;;5147998;28;20391;-73
2023/10/24 06:55:21;;;;;;;18.23;12.02;;;17.80;99.90;;;;;;5147943;28;20447;-75
2023/10/24 06:57:52;;;;;;;18.45;11.73;;;17.90;99.90;;;;;;5148108;28;20026;-76
2023/10/24 07:00:24;;;;;;;16.13;11.95;;;17.90;99.90;;;;;;5147885;28;20055;-76
2023/10/24 07:02:55;;;;;;;15.68;12.02;;;17.90;99.90;;;;;;5147635;28;20035;-73
2023/10/24 07:05:27;;;;;;;15.68;12.30;;;18.00;99.90;;;;;;5147527;28;20034;-73
2023/10/24 07:07:58;;;;;;;15.45;12.43;;;18.20;99.90;;;;;;5147587;28;20031;-72
2023/10/24 07:10:31;;;;;;;17.20;11.43;;;18.40;99.90;;;;;;5147808;28;20026;-73
2023/10/24 07:13:02;;;;;;;15.15;11.80;;;18.50;99.90;;;;;;5147328;28;20042;-74
2023/10/24 07:15:33;;;;;;;20.58;11.70;;;18.70;99.90;;;;;;5146807;28;20054;-74
2023/10/24 07:18:04;;;;;;;20.23;12.32;;;18.80;99.90;;;;;;5142294;28;20027;-75
2023/10/24 07:20:36;;;;;;;15.00;12.40;;;19.00;99.90;;;;;;5137292;28;20027;-74
2023/10/24 07:23:07;;;;;;;17.67;12.30;;;19.10;99.90;;;;;;5147000;28;20038;-74
2023/10/24 07:25:37;;;;;;;15.73;11.85;;;17.90;99.90;;;;;;5147024;28;20023;-73
2023/10/24 07:28:08;;;;;;;20.85;13.30;;;19.20;99.90;;;;;;5147025;28;20102;-75
2023/10/24 07:30:39;;;;;;;19.85;13.00;;;19.40;99.90;;;;;;5146595;28;20471;-74
2023/10/24 07:33:10;;;;;;;17.83;13.93;;;19.60;99.90;;;;;;5146584;28;20050;-74
2023/10/24 07:35:40;;;;;;;26.77;14.80;;;19.60;99.90;;;;;;5146957;28;20027;-74
2023/10/24 07:38:11;;;;;;;27.33;16.25;;;19.80;99.90;;;;;;5146904;28;20127;-75
2023/10/24 07:40:42;;;;;;;22.60;16.90;;;19.80;99.90;;;;;;5146409;28;20034;-75
2023/10/24 07:43:13;;;;;;;23.15;16.33;;;19.90;99.90;;;;;;5146730;28;20379;-74
2023/10/24 07:45:49;;;;;;;25.85;15.82;;;20.10;99.90;;;;;;5146824;28;20177;-75
2023/10/24 07:48:20;;;;;;;22.38;15.70;;;20.30;99.90;;;;;;5146781;28;20364;-73
2023/10/24 07:50:52;;;;;;;23.80;14.93;;;20.50;99.90;;;;;;5146617;28;20034;-74
2023/10/24 07:53:25;;;;;;;20.63;14.30;;;20.60;99.90;;;;;;5146599;28;20039;-74
2023/10/24 07:55:55;;;;;;;19.55;14.18;;;20.70;99.90;;;;;;5146494;28;20132;-74
2023/10/24 07:58:26;;;;;;;19.25;13.95;;;20.70;99.90;;;;;;5146520;28;20059;-74
2023/10/24 08:00:57;;;;;;;19.02;13.93;;;20.80;99.90;;;;;;5146607;28;20023;-74
2023/10/24 08:03:28;;;;;;;20.15;15.45;;;21.00;99.90;;;;;;5146538;28;20034;-76
2023/10/24 08:05:59;;;;;;;20.67;14.48;;;21.00;99.90;;;;;;5146983;28;20130;-75
2023/10/24 08:08:30;;;;;;;19.80;15.50;;;21.20;99.90;;;;;;5146874;28;20141;-76
2023/10/24 08:11:00;;;;;;;24.30;15.52;;;21.30;99.90;;;;;;5146221;28;20110;-73
2023/10/24 08:13:32;;;;;;;25.45;15.82;;;21.50;99.90;;;;;;5145547;28;20089;-75
2023/10/24 08:16:02;;;;;;;21.58;15.25;;;21.50;99.90;;;;;;5145480;28;20047;-74
2023/10/24 08:18:36;;;;;;;20.85;14.95;;;21.80;99.90;;;;;;5145734;28;20038;-72
2023/10/24 08:21:07;;;;;;;23.70;14.85;;;21.90;99.90;;;;;;5145540;28;20047;-75
2023/10/24 08:23:38;;;;;;;25.48;15.88;;;22.00;99.90;;;;;;5145659;28;20057;-72
2023/10/24 08:26:09;;;;;;;22.73;15.95;;;21.90;99.90;;;;;;5145714;28;20427;-72
2023/10/24 08:28:40;;;;;;;24.92;16.88;;;22.10;99.90;;;;;;5145650;28;20533;-73
2023/10/24 08:31:11;;;;;;;26.27;16.83;;;21.90;99.90;;;;;;5145655;28;20378;-70
2023/10/24 08:33:42;;;;;;;20.08;16.83;;;22.40;99.90;;;;;;5145535;28;20031;-73
2023/10/24 08:36:13;;;;;;;19.42;15.05;;;22.70;99.90;;;;;;5145377;28;20081;-76
2023/10/24 08:38:44;;;;;;;26.95;15.48;;;22.50;99.90;;;;;;5145321;28;20022;-74
2023/10/24 08:41:15;;;;;;;23.17;16.80;;;22.70;99.90;;;;;;5144197;28;20034;-76
2023/10/24 08:43:46;;;;;;;20.13;15.10;;;23.00;99.90;;;;;;5145056;28;20717;-76
2023/10/24 08:46:17;;;;;;;26.73;16.63;;;23.10;99.90;;;;;;5145305;28;20475;-76
2023/10/24 08:48:48;;;;;;;25.23;18.63;;;23.10;99.90;;;;;;5145126;28;20023;-72
2023/10/24 08:51:19;;;;;;;27.60;18.02;;;23.00;99.90;;;;;;5144994;28;20387;-76
2023/10/24 08:53:50;;;;;;;29.15;20.67;;;23.40;99.90;;;;;;5145102;28;20427;-77
2023/10/24 08:56:21;;;;;;;25.88;21.52;;;23.50;99.90;;;;;;5144828;28;20073;-78
2023/10/24 08:58:56;;;;;;;23.85;19.20;;;23.80;99.90;;;;;;5142562;28;20105;-77
2023/10/24 09:01:28;;;;;;;24.27;21.73;;;23.80;99.90;;;;;;5143548;28;20471;-73
2023/10/24 09:03:59;;;;;;;21.83;19.13;;;24.00;99.90;;;;;;5141877;28;20770;-78
2023/10/24 09:06:33;;;;;;;22.23;19.95;;;23.90;99.90;;;;;;5144852;28;20035;-74
2023/10/24 09:09:04;;;;;;;26.88;19.80;;;23.90;99.90;;;;;;5144889;28;20023;-77
2023/10/24 09:11:58;;;;;;;27.50;19.08;;;24.10;99.90;;;;;;5144585;28;20031;-76
2023/10/24 09:14:29;;;;;;;26.40;18.10;;;24.30;99.90;;;;;;5145174;28;20043;-74
2023/10/24 09:17:03;;;;;;;25.83;17.13;;;24.40;99.90;;;;;;5145134;28;20387;-76
2023/10/24 09:19:34;;;;;;;23.95;15.32;;;24.50;99.90;;;;;;5145154;28;20054;-77
2023/10/24 09:22:04;;;;;;;20.83;15.90;;;24.60;99.90;;;;;;5144809;28;20043;-76
2023/10/24 09:24:35;;;;;;;21.05;15.10;;;24.70;99.90;;;;;;5144825;28;20035;-74
2023/10/24 09:27:06;;;;;;;20.25;15.38;;;24.90;99.90;;;;;;5144768;28;20050;-76
2023/10/24 09:29:37;;;;;;;23.38;16.95;;;24.90;99.90;;;;;;5144860;28;20069;-76
2023/10/24 09:32:17;;;;;;;28.70;18.48;;;25.10;99.90;;;;;;5144349;28;20042;-77
2023/10/24 09:34:48;;;;;;;30.73;16.40;;;25.00;99.90;;;;;;5144720;28;20102;-77
2023/10/24 09:37:19;;;;;;;64.13;18.92;;;25.10;99.90;;;;;;5144862;28;20030;-77
2023/10/24 09:39:57;;;;;;;23.92;14.45;;;25.30;99.90;;;;;;5144875;28;20018;-73
2023/10/24 09:42:29;;;;;;;23.70;14.60;;;25.30;99.90;;;;;;5130956;28;20054;-77
2023/10/24 09:45:07;;;;;;;26.98;15.25;;;25.30;99.90;;;;;;5124401;28;20643;-72
2023/10/24 09:47:39;;;;;;;22.45;16.27;;;25.50;99.90;;;;;;5124341;28;20050;-76
2023/10/24 09:50:11;;;;;;;19.25;16.23;;;25.60;99.90;;;;;;5142512;28;20450;-75
2023/10/24 09:52:43;;;;;;;26.98;14.55;;;25.60;99.90;;;;;;5144177;28;20065;-76
2023/10/24 09:55:15;;;;;;;24.90;14.23;;;25.80;99.90;;;;;;5144370;28;20732;-77
2023/10/24 09:57:49;;;;;;;26.17;13.57;;;25.80;99.90;;;;;;5144345;28;20035;-77
2023/10/24 10:00:20;;;;;;;21.58;13.00;;;25.70;99.90;;;;;;5144030;28;20094;-76
2023/10/24 10:02:56;;;;;;;23.50;13.43;;;25.80;99.90;;;;;;5144348;28;20094;-77
2023/10/24 10:05:30;;;;;;;22.17;13.45;;;26.10;99.90;;;;;;5144372;28;20039;-73
2023/10/24 10:08:04;;;;;;;26.48;13.70;;;26.30;99.90;;;;;;5144577;28;20027;-76
2023/10/24 10:10:37;;;;;;;24.23;12.82;;;26.40;99.90;;;;;;5144137;28;20023;-76
2023/10/24 10:13:10;;;;;;;19.38;11.85;;;26.30;99.90;;;;;;5144130;28;20482;-76
2023/10/24 10:16:02;;;;;;;21.80;12.63;;;26.20;99.90;;;;;;5143915;28;20090;-77
2023/10/24 10:18:50;;;;;;;22.52;13.32;;;26.30;99.90;;;;;;5144388;28;20038;-77
2023/10/24 10:21:44;;;;;;;18.37;12.50;;;26.40;99.90;;;;;;5144605;28;20023;-77
2023/10/24 10:24:35;;;;;;;21.00;12.15;;;26.30;99.90;;;;;;5143214;28;20038;-74
2023/10/24 10:27:24;;;;;;;20.80;11.07;;;26.50;99.90;;;;;;5133272;28;20063;-76
2023/10/24 10:30:06;;;;;;;21.35;11.98;;;26.30;99.90;;;;;;5142975;28;20039;-72
2023/10/24 10:32:43;;;;;;;23.50;11.32;;;26.50;99.90;;;;;;5144117;28;20043;-76
2023/10/24 10:35:14;;;;;;;21.65;11.43;;;26.50;99.90;;;;;;5144048;28;20034;-76
2023/10/24 10:38:06;;;;;;;20.10;11.52;;;26.60;99.90;;;;;;5142655;28;20039;-74
2023/10/24 10:40:37;;;;;;;24.85;11.95;;;26.60;99.90;;;;;;5144412;28;20467;-73
2023/10/24 10:43:08;;;;;;;21.98;11.82;;;26.60;99.90;;;;;;5144040;28;20026;-77
2023/10/24 10:45:39;;;;;;;27.17;12.02;;;26.60;99.90;;;;;;5143875;28;20027;-77
2023/10/24 10:48:10;;;;;;;18.02;11.00;;;26.60;99.90;;;;;;5143791;28;20042;-73
2023/10/24 10:50:42;;;;;;;21.33;11.90;;;26.80;99.90;;;;;;5144162;28;20492;-77
2023/10/24 10:53:31;;;;;;;20.83;11.43;;;26.60;99.90;;;;;;5144197;28;20474;-77
2023/10/24 10:56:13;;;;;;;22.15;11.63;;;26.60;99.90;;;;;;5143940;28;20038;-78
2023/10/24 10:59:16;;;;;;;23.13;12.43;;;26.50;99.90;;;;;;5143978;28;20027;-77
2023/10/24 11:02:14;;;;;;;22.48;11.95;;;26.50;99.90;;;;;;5144095;28;20038;-78
2023/10/24 11:04:45;;;;;;;16.33;12.27;;;26.60;99.90;;;;;;5144615;28;20561;-74
2023/10/24 11:07:15;;;;;;;19.50;11.43;;;26.60;99.90;;;;;;5147609;28;20030;-73
2023/10/24 11:09:47;;;;;;;16.92;11.55;;;26.50;99.90;;;;;;5147870;28;20038;-77
2023/10/24 11:12:21;;;;;;;20.30;12.40;;;26.60;99.90;;;;;;5147458;28;20034;-75
2023/10/24 11:15:07;;;;;;;19.45;10.95;;;26.60;99.90;;;;;;5147097;28;20486;-77
2023/10/24 11:17:37;;;;;;;21.73;10.68;;;26.50;99.90;;;;;;5147526;28;20039;-75
2023/10/24 11:20:09;;;;;;;22.23;10.18;;;26.50;99.90;;;;;;5146254;28;20030;-76
2023/10/24 11:22:40;;;;;;;19.73;10.77;;;26.10;99.90;;;;;;5147370;28;20095;-72
2023/10/24 11:25:13;;;;;;;16.70;11.02;;;26.40;99.90;;;;;;5145985;28;20023;-76
2023/10/24 11:27:45;;;;;;;27.95;10.38;;;26.30;99.90;;;;;;5147316;28;20027;-77
2023/10/24 11:30:16;;;;;;;15.57;10.40;;;26.50;99.90;;;;;;5147246;28;20025;-72
2023/10/24 11:32:47;;;;;;;21.55;10.73;;;26.40;99.90;;;;;;5146819;28;20038;-77
2023/10/24 11:35:18;;;;;;;17.42;10.25;;;26.50;99.90;;;;;;5146350;28;20087;-75
2023/10/24 11:37:49;;;;;;;24.92;9.55;;;26.40;99.90;;;;;;5146461;28;20027;-76
2023/10/24 11:40:20;;;;;;;23.40;9.90;;;26.50;99.90;;;;;;5145440;28;20068;-77
2023/10/24 11:42:50;;;;;;;19.52;10.27;;;26.40;99.90;;;;;;5146826;28;20506;-73
2023/10/24 11:45:21;;;;;;;17.58;10.13;;;26.40;99.90;;;;;;5146728;28;20023;-76
2023/10/24 11:47:55;;;;;;;19.33;10.60;;;26.40;99.90;;;;;;5146682;28;20031;-76
2023/10/24 11:50:43;;;;;;;26.42;11.10;;;26.30;99.90;;;;;;5146799;28;20465;-76
2023/10/24 11:53:22;;;;;;;23.50;10.73;;;26.20;99.90;;;;;;5146307;28;20049;-76
2023/10/24 11:55:53;;;;;;;18.55;9.63;;;26.40;99.90;;;;;;5146553;28;20015;-74
2023/10/24 11:58:31;;;;;;;18.80;9.70;;;26.30;99.90;;;;;;5146459;28;20433;-77
2023/10/24 12:01:02;;;;;;;21.02;10.02;;;26.20;99.90;;;;;;5146729;28;20019;-77
2023/10/24 12:03:47;;;;;;;21.52;9.90;;;26.20;99.90;;;;;;5146587;28;20094;-76
2023/10/24 12:06:18;;;;;;;21.52;10.50;;;26.40;99.90;;;;;;5146836;28;20093;-76
2023/10/24 12:08:49;;;;;;;17.20;10.50;;;26.30;99.90;;;;;;5145332;28;20029;-77
2023/10/24 12:11:22;;;;;;;21.08;10.32;;;26.20;99.90;;;;;;5146678;28;20027;-72
2023/10/24 12:13:53;;;;;;;23.98;10.75;;;26.20;99.90;;;;;;5146208;28;20034;-75
2023/10/24 12:16:34;;;;;;;22.80;10.48;;;26.10;99.90;;;;;;5145991;28;20047;-71
2023/10/24 12:19:05;;;;;;;17.80;11.15;;;25.90;99.90;;;;;;5146405;28;20034;-73
2023/10/24 12:21:36;;;;;;;22.05;10.80;;;26.10;99.90;;;;;;5146078;28;20027;-77
2023/10/24 12:24:07;;;;;;;24.55;11.75;;;25.70;99.90;;;;;;5146104;28;20027;-76
2023/10/24 12:26:38;;;;;;;22.10;11.07;;;25.60;99.90;;;;;;5146212;28;20027;-77
2023/10/24 12:29:12;;;;;;;20.67;11.45;;;25.80;99.90;;;;;;5146102;28;20041;-76
2023/10/24 12:31:43;;;;;;;20.67;10.90;;;25.80;99.90;;;;;;5145916;28;20034;-72
2023/10/24 12:34:14;;;;;;;21.73;11.13;;;25.50;99.90;;;;;;5145942;28;20542;-76
2023/10/24 12:36:46;;;;;;;22.02;11.82;;;25.70;99.90;;;;;;5145877;28;20019;-73
2023/10/24 12:39:17;;;;;;;21.27;11.43;;;25.80;99.90;;;;;;5146005;28;20053;-77
2023/10/24 12:41:48;;;;;;;17.00;10.45;;;25.70;99.90;;;;;;5146051;28;20015;-77
2023/10/24 12:44:19;;;;;;;26.08;10.30;;;25.60;99.90;;;;;;5145929;28;20051;-76
2023/10/24 12:46:49;;;;;;;20.02;10.65;;;25.30;99.90;;;;;;5145916;28;20085;-75
2023/10/24 12:49:20;;;;;;;18.60;10.52;;;25.30;99.90;;;;;;5145752;28;20114;-74
2023/10/24 12:51:51;;;;;;;19.05;10.27;;;25.40;99.90;;;;;;5145683;28;20394;-72
2023/10/24 12:54:22;;;;;;;23.20;11.48;;;25.60;99.90;;;;;;5144682;28;20475;-75